createdAt,value
2018-09-09T00:00:04.594Z,92.90
2018-09-09T00:02:32.526Z,92.70
2018-09-09T00:05:00.453Z,92.70
2018-09-09T00:07:28.434Z,92.50
2018-09-09T00:09:56.347Z,92.20
2018-09-09T00:12:24.973Z,92.30
2018-09-09T00:14:53.625Z,92.20
2018-09-09T00:17:21.664Z,92.40
2018-09-09T00:19:49.582Z,92.10
2018-09-09T00:22:19.237Z,92.10
2018-09-09T00:24:47.160Z,92.10
2018-09-09T00:27:15.020Z,92.10
2018-09-09T00:29:42.894Z,92.10
2018-09-09T00:32:10.813Z,92.10
2018-09-09T00:34:38.769Z,92.20
2018-09-09T00:37:06.643Z,92.30
2018-09-09T00:39:35.572Z,92.40
2018-09-09T00:42:03.449Z,92.80
2018-09-09T00:44:31.392Z,92.60
2018-09-09T00:46:59.450Z,92.50
2018-09-09T00:49:32.966Z,92.70
2018-09-09T00:52:06.490Z,92.20
2018-09-09T00:54:34.411Z,92.30
2018-09-09T00:57:02.335Z,92.30
2018-09-09T00:59:30.204Z,92.40
2018-09-09T01:01:58.063Z,92.30
2018-09-09T01:04:25.977Z,92.50
2018-09-09T01:06:53.938Z,92.20
2018-09-09T01:09:27.034Z,92.20
2018-09-09T01:11:54.858Z,92.40
2018-09-09T01:14:22.726Z,92.40
2018-09-09T01:16:52.369Z,92.40
2018-09-09T01:19:20.274Z,92.40
2018-09-09T01:21:48.188Z,92.30
2018-09-09T01:24:16.052Z,92.30
2018-09-09T01:26:45.090Z,92.20
2018-09-09T01:29:12.997Z,92.40
2018-09-09T01:31:40.885Z,92.30
2018-09-09T01:34:08.810Z,92.20
2018-09-09T01:36:36.749Z,92.10
2018-09-09T01:39:07.295Z,92.00
2018-09-09T01:41:35.245Z,91.80
2018-09-09T01:44:03.441Z,91.90
2018-09-09T01:46:31.309Z,92.00
2018-09-09T01:48:59.177Z,92.10
2018-09-09T01:51:27.021Z,92.00
2018-09-09T01:53:55.200Z,92.20
2018-09-09T01:56:23.625Z,92.10
2018-09-09T01:58:52.094Z,92.10
2018-09-09T02:01:19.974Z,92.10
2018-09-09T02:03:47.888Z,92.30
2018-09-09T02:06:15.806Z,92.30
2018-09-09T02:08:43.714Z,92.30
2018-09-09T02:11:11.636Z,92.60
2018-09-09T02:13:40.364Z,92.50
2018-09-09T02:16:08.288Z,92.60
2018-09-09T02:18:36.178Z,92.40
2018-09-09T02:21:04.082Z,92.70
2018-09-09T02:23:32.005Z,92.60
2018-09-09T02:25:59.879Z,92.60
2018-09-09T02:28:27.800Z,92.60
2018-09-09T02:30:55.721Z,92.50
2018-09-09T02:33:24.354Z,92.40
2018-09-09T02:35:52.262Z,92.30
2018-09-09T02:38:20.172Z,92.40
2018-09-09T02:40:48.538Z,92.40
2018-09-09T02:43:16.418Z,92.30
2018-09-09T02:45:44.328Z,92.20
2018-09-09T02:48:12.212Z,91.60
2018-09-09T02:50:40.656Z,91.70
2018-09-09T02:53:08.577Z,91.80
2018-09-09T02:55:46.247Z,91.90
2018-09-09T02:58:15.721Z,91.90
2018-09-09T03:00:43.715Z,91.90
2018-09-09T03:03:11.648Z,92.00
2018-09-09T03:05:39.727Z,92.10
2018-09-09T03:08:07.969Z,92.10
2018-09-09T03:10:36.148Z,92.00
2018-09-09T03:13:04.056Z,92.00
2018-09-09T03:15:31.982Z,92.20
2018-09-09T03:17:59.927Z,92.10
2018-09-09T03:20:27.826Z,92.10
2018-09-09T03:22:55.702Z,92.20
2018-09-09T03:25:24.001Z,92.00
2018-09-09T03:27:51.910Z,91.80
2018-09-09T03:30:20.005Z,91.80
2018-09-09T03:32:48.755Z,91.90
2018-09-09T03:35:16.623Z,92.00
2018-09-09T03:37:44.564Z,92.00
2018-09-09T03:40:12.476Z,92.20
2018-09-09T03:42:40.360Z,92.00
2018-09-09T03:45:08.260Z,92.10
2018-09-09T03:47:36.168Z,92.30
2018-09-09T03:50:04.175Z,92.20
2018-09-09T03:52:32.084Z,92.00
2018-09-09T03:55:00.703Z,92.10
2018-09-09T03:57:28.700Z,92.30
2018-09-09T03:59:57.176Z,92.10
2018-09-09T04:02:25.093Z,92.10
2018-09-09T04:04:53.331Z,92.30
2018-09-09T04:07:21.964Z,92.20
2018-09-09T04:09:49.962Z,92.10
2018-09-09T04:12:18.009Z,92.00
2018-09-09T04:14:45.958Z,92.20
2018-09-09T04:17:13.915Z,92.00
2018-09-09T04:19:41.811Z,92.10
2018-09-09T04:22:09.803Z,92.10
2018-09-09T04:24:37.711Z,92.10
2018-09-09T04:27:07.367Z,92.10
2018-09-09T04:29:35.252Z,92.10
2018-09-09T04:32:03.201Z,92.00
2018-09-09T04:34:31.097Z,92.10
2018-09-09T04:36:59.688Z,92.10
2018-09-09T04:39:28.227Z,92.10
2018-09-09T04:41:56.115Z,92.20
2018-09-09T04:44:25.862Z,92.30
2018-09-09T04:46:53.769Z,92.30
2018-09-09T04:49:22.207Z,92.10
2018-09-09T04:51:50.121Z,92.20
2018-09-09T04:54:18.058Z,92.50
2018-09-09T04:56:46.571Z,92.30
2018-09-09T04:59:15.216Z,92.30
2018-09-09T05:01:43.131Z,92.40
2018-09-09T05:04:11.260Z,92.30
2018-09-09T05:06:39.519Z,92.40
2018-09-09T05:09:08.088Z,92.50
2018-09-09T05:11:36.001Z,92.50
2018-09-09T05:14:04.044Z,92.50
2018-09-09T05:16:32.195Z,92.20
2018-09-09T05:19:01.068Z,92.40
2018-09-09T05:21:29.008Z,92.50
2018-09-09T05:23:56.929Z,92.60
2018-09-09T05:26:24.920Z,92.70
2018-09-09T05:28:52.906Z,92.70
2018-09-09T05:31:21.004Z,92.70
2018-09-09T05:33:48.988Z,92.90
2018-09-09T05:36:17.444Z,93.10
2018-09-09T05:38:45.497Z,93.10
2018-09-09T05:41:13.484Z,93.20
2018-09-09T05:43:41.404Z,93.20
2018-09-09T05:46:09.358Z,93.10
2018-09-09T05:48:37.812Z,93.30
2018-09-09T05:51:06.770Z,93.30
2018-09-09T05:53:35.211Z,93.50
2018-09-09T05:56:03.944Z,93.50
2018-09-09T05:58:32.594Z,93.30
2018-09-09T06:01:00.640Z,93.20
2018-09-09T06:03:29.100Z,93.50
2018-09-09T06:05:57.027Z,93.60
2018-09-09T06:08:24.963Z,93.50
2018-09-09T06:10:54.900Z,93.60
2018-09-09T06:13:24.523Z,93.60
2018-09-09T06:15:53.358Z,93.40
2018-09-09T06:18:22.612Z,93.30
2018-09-09T06:20:56.291Z,93.30
2018-09-09T06:23:25.351Z,93.30
2018-09-09T06:25:54.283Z,93.30
2018-09-09T06:28:23.882Z,93.30
2018-09-09T06:30:53.311Z,93.20
2018-09-09T06:33:21.928Z,93.20
2018-09-09T06:35:52.092Z,93.10
2018-09-09T06:38:20.689Z,93.20
2018-09-09T06:40:48.642Z,93.30
2018-09-09T06:43:18.564Z,93.30
2018-09-09T06:45:47.786Z,93.40
2018-09-09T06:48:16.560Z,93.30
2018-09-09T06:50:46.176Z,93.20
2018-09-09T06:53:15.014Z,93.10
2018-09-09T06:55:44.380Z,93.00
2018-09-09T06:58:15.747Z,93.30
2018-09-09T07:00:46.047Z,93.10
2018-09-09T07:03:14.633Z,92.40
2018-09-09T07:05:43.167Z,92.40
2018-09-09T07:08:11.761Z,92.40
2018-09-09T07:10:41.076Z,91.90
2018-09-09T07:13:09.824Z,91.60
2018-09-09T07:15:39.896Z,91.60
2018-09-09T07:18:08.243Z,92.00
2018-09-09T07:20:39.063Z,92.10
2018-09-09T07:23:08.442Z,92.20
2018-09-09T07:25:37.877Z,92.30
2018-09-09T07:28:08.414Z,91.90
2018-09-09T07:30:36.767Z,91.80
2018-09-09T07:33:05.369Z,91.80
2018-09-09T07:35:33.556Z,92.10
2018-09-09T07:38:02.871Z,92.10
2018-09-09T07:40:30.841Z,91.80
2018-09-09T07:43:01.108Z,91.10
2018-09-09T07:45:31.380Z,91.30
2018-09-09T07:48:00.492Z,91.20
2018-09-09T07:50:32.729Z,91.30
2018-09-09T07:53:02.138Z,91.40
2018-09-09T07:55:30.058Z,91.30
2018-09-09T07:57:59.038Z,90.90
2018-09-09T08:00:27.715Z,91.10
2018-09-09T08:02:55.735Z,90.90
2018-09-09T08:05:26.100Z,90.70
2018-09-09T08:07:55.676Z,90.40
2018-09-09T08:10:23.946Z,90.40
2018-09-09T08:12:52.342Z,90.60
2018-09-09T08:15:20.511Z,90.20
2018-09-09T08:17:49.739Z,89.60
2018-09-09T08:20:20.227Z,90.00
2018-09-09T08:22:49.740Z,90.10
2018-09-09T08:25:17.892Z,90.30
2018-09-09T08:27:46.407Z,90.30
2018-09-09T08:30:14.618Z,90.10
2018-09-09T08:32:43.111Z,87.90
2018-09-09T08:35:11.086Z,86.60
2018-09-09T08:37:39.030Z,86.30
2018-09-09T08:40:07.647Z,87.30
2018-09-09T08:42:36.624Z,87.30
2018-09-09T08:45:05.008Z,87.50
2018-09-09T08:47:33.619Z,86.60
2018-09-09T08:50:01.558Z,84.80
2018-09-09T08:52:30.175Z,84.30
2018-09-09T08:54:58.086Z,85.60
2018-09-09T08:57:26.304Z,84.90
2018-09-09T08:59:54.356Z,83.60
2018-09-09T09:02:22.229Z,84.00
2018-09-09T09:04:51.050Z,84.50
2018-09-09T09:07:18.991Z,82.70
2018-09-09T09:09:47.469Z,83.10
2018-09-09T09:12:16.268Z,82.20
2018-09-09T09:14:44.945Z,81.20
2018-09-09T09:17:13.951Z,82.00
2018-09-09T09:19:41.905Z,81.70
2018-09-09T09:22:09.799Z,82.40
2018-09-09T09:24:37.825Z,82.20
2018-09-09T09:27:06.821Z,81.50
2018-09-09T09:29:41.913Z,79.90
2018-09-09T09:32:09.867Z,79.80
2018-09-09T09:34:37.891Z,79.10
2018-09-09T09:37:05.855Z,78.60
2018-09-09T09:39:33.815Z,77.80
2018-09-09T09:42:01.757Z,79.70
2018-09-09T09:44:29.700Z,79.00
2018-09-09T09:46:57.667Z,79.10
2018-09-09T09:49:25.602Z,77.40
2018-09-09T09:51:54.231Z,78.60
2018-09-09T09:54:22.202Z,76.90
2018-09-09T09:56:51.667Z,78.10
2018-09-09T09:59:20.478Z,79.30
2018-09-09T10:01:48.456Z,77.40
2018-09-09T10:04:17.056Z,76.90
2018-09-09T10:06:45.286Z,77.80
2018-09-09T10:09:13.259Z,76.40
2018-09-09T10:11:41.168Z,75.70
2018-09-09T10:14:09.098Z,75.00
2018-09-09T10:16:37.576Z,76.90
2018-09-09T10:19:05.634Z,76.40
2018-09-09T10:21:34.323Z,75.20
2018-09-09T10:24:02.958Z,75.10
2018-09-09T10:26:31.918Z,75.00
2018-09-09T10:29:00.206Z,75.80
2018-09-09T10:31:28.180Z,73.70
2018-09-09T10:33:56.130Z,73.60
2018-09-09T10:36:24.628Z,73.50
2018-09-09T10:38:52.552Z,73.30
2018-09-09T10:41:22.352Z,72.20
2018-09-09T10:43:51.479Z,73.20
2018-09-09T10:46:19.646Z,75.40
2018-09-09T10:48:48.137Z,74.20
2018-09-09T10:51:16.053Z,73.10
2018-09-09T10:53:43.959Z,75.10
2018-09-09T10:56:11.850Z,74.70
2018-09-09T10:58:39.847Z,73.30
2018-09-09T11:01:07.806Z,74.60
2018-09-09T11:03:35.965Z,70.50
2018-09-09T11:06:03.876Z,70.70
2018-09-09T11:08:32.426Z,71.10
2018-09-09T11:11:00.354Z,72.20
2018-09-09T11:13:28.234Z,72.50
2018-09-09T11:15:56.129Z,71.00
2018-09-09T11:18:24.124Z,73.30
2018-09-09T11:20:52.038Z,70.20
2018-09-09T11:23:19.934Z,72.40
2018-09-09T11:25:47.807Z,71.80
2018-09-09T11:28:15.700Z,71.50
2018-09-09T11:30:43.624Z,69.50
2018-09-09T11:33:12.239Z,71.00
2018-09-09T11:35:40.185Z,71.40
2018-09-09T11:38:08.094Z,68.40
2018-09-09T11:40:36.087Z,70.20
2018-09-09T11:43:04.022Z,69.20
2018-09-09T11:45:32.138Z,67.40
2018-09-09T11:48:00.841Z,70.00
2018-09-09T11:50:30.422Z,66.60
2018-09-09T13:14:00.085Z,57.10
2018-09-09T13:16:27.974Z,56.00
2018-09-09T13:18:55.945Z,56.50
2018-09-09T13:21:23.838Z,58.60
2018-09-09T13:23:52.247Z,57.70
2018-09-09T13:26:20.161Z,57.30
2018-09-09T13:28:48.998Z,56.30
2018-09-09T13:31:17.020Z,54.70
2018-09-09T13:33:45.561Z,56.40
2018-09-09T13:36:13.430Z,58.80
2018-09-09T13:38:41.331Z,57.00
2018-09-09T13:41:09.667Z,57.60
2018-09-09T13:43:38.256Z,58.10
2018-09-09T13:46:06.673Z,57.90
2018-09-09T13:48:34.698Z,59.10
2018-09-09T13:51:03.174Z,60.50
2018-09-09T13:53:31.096Z,59.40
2018-09-09T13:55:59.771Z,54.20
2018-09-09T13:58:27.680Z,54.70
2018-09-09T14:00:55.609Z,54.50
2018-09-09T14:03:23.925Z,56.10
2018-09-09T14:05:51.826Z,54.40
2018-09-09T14:08:19.816Z,56.50
2018-09-09T14:10:47.740Z,55.90
2018-09-09T14:13:15.632Z,56.50
2018-09-09T14:15:43.534Z,55.90
2018-09-09T14:18:11.461Z,57.10
2018-09-09T14:20:39.398Z,59.20
2018-09-09T14:23:07.296Z,58.80
2018-09-09T14:25:35.222Z,59.10
2018-09-09T14:28:04.017Z,59.80
2018-09-09T14:30:31.918Z,56.10
2018-09-09T14:32:59.875Z,55.80
2018-09-09T14:35:27.783Z,57.10
2018-09-09T14:37:55.648Z,56.70
2018-09-09T14:40:23.542Z,58.60
2018-09-09T14:42:51.503Z,57.70
2018-09-09T14:45:19.416Z,59.80
2018-09-09T14:47:47.314Z,59.50
2018-09-09T14:50:15.199Z,61.80
2018-09-09T14:52:43.198Z,60.00
2018-09-09T14:55:11.121Z,58.90
2018-09-09T14:57:40.179Z,60.80
2018-09-09T15:00:08.263Z,59.30
2018-09-09T15:02:36.169Z,58.90
2018-09-09T15:05:04.060Z,59.50
2018-09-09T15:07:32.049Z,64.20
2018-09-09T15:10:00.688Z,61.00
2018-09-09T15:12:29.536Z,56.70
2018-09-09T15:14:57.459Z,57.00
2018-09-09T15:17:25.767Z,57.30
2018-09-09T15:19:54.115Z,56.70
2018-09-09T15:22:22.585Z,57.00
2018-09-09T15:24:50.525Z,56.70
2018-09-09T15:27:18.452Z,54.30
2018-09-09T15:29:46.467Z,55.00
2018-09-09T15:32:14.408Z,56.30
2018-09-09T15:34:42.425Z,55.80
2018-09-09T15:37:10.650Z,55.80
2018-09-09T15:39:38.592Z,55.80
2018-09-09T15:42:07.104Z,55.10
2018-09-09T15:44:35.052Z,56.60
2018-09-09T15:47:03.258Z,55.40
2018-09-09T15:49:31.192Z,54.80
2018-09-09T15:52:00.220Z,54.30
2018-09-09T15:54:28.191Z,54.80
2018-09-09T15:56:56.154Z,55.80
2018-09-09T15:59:24.103Z,56.00
2018-09-09T16:01:53.339Z,55.90
2018-09-09T16:04:21.837Z,53.70
2018-09-09T16:06:51.290Z,54.80
2018-09-09T16:09:19.227Z,55.00
2018-09-09T16:11:47.358Z,55.70
2018-09-09T16:14:15.202Z,55.50
2018-09-09T16:16:43.113Z,56.30
2018-09-09T16:19:11.015Z,55.10
2018-09-09T16:21:39.488Z,55.20
2018-09-09T16:24:08.842Z,54.90
2018-09-09T16:26:37.348Z,55.60
2018-09-09T16:29:05.271Z,57.10
2018-09-09T16:31:33.194Z,55.80
2018-09-09T16:34:01.835Z,57.00
2018-09-09T16:36:30.366Z,57.90
2018-09-09T16:38:58.328Z,58.10
2018-09-09T16:41:26.906Z,58.20
2018-09-09T16:43:54.834Z,58.50
2018-09-09T16:46:23.759Z,58.90
2018-09-09T16:48:52.708Z,59.30
2018-09-09T16:51:20.978Z,59.70
2018-09-09T16:53:48.876Z,61.20
2018-09-09T16:56:16.773Z,63.60
2018-09-09T16:58:44.630Z,64.00
2018-09-09T17:01:12.562Z,64.50
2018-09-09T17:03:41.436Z,64.80
2018-09-09T17:06:09.723Z,65.80
2018-09-09T17:08:37.741Z,65.60
2018-09-09T17:11:06.484Z,65.50
2018-09-09T17:13:34.358Z,65.80
2018-09-09T17:16:02.292Z,65.50
2018-09-09T17:18:30.729Z,65.40
2018-09-09T17:21:00.133Z,65.60
2018-09-09T17:23:28.670Z,66.10
2018-09-09T17:25:57.579Z,66.50
2018-09-09T17:28:25.484Z,66.70
2018-09-09T17:30:53.915Z,66.60
2018-09-09T17:33:23.437Z,67.50
2018-09-09T17:35:51.338Z,68.20
2018-09-09T17:38:19.389Z,68.70
2018-09-09T17:40:47.427Z,68.60
2018-09-09T17:43:15.324Z,69.40
2018-09-09T17:45:43.955Z,69.20
2018-09-09T17:48:11.924Z,68.80
2018-09-09T17:50:40.594Z,68.80
2018-09-09T17:53:10.007Z,68.60
2018-09-09T17:55:38.618Z,69.10
2018-09-09T17:58:06.541Z,70.00
2018-09-09T18:00:35.803Z,70.00
2018-09-09T18:03:03.862Z,69.90
2018-09-09T18:05:32.351Z,70.40
2018-09-09T18:08:00.273Z,71.50
2018-09-09T18:10:30.164Z,72.80
2018-09-09T18:13:00.067Z,73.00
2018-09-09T18:15:28.998Z,74.00
2018-09-09T18:17:57.215Z,74.60
2018-09-09T18:20:26.218Z,76.00
2018-09-09T18:22:54.184Z,76.60
2018-09-09T18:25:22.077Z,76.30
2018-09-09T18:27:51.025Z,77.20
2018-09-09T18:30:20.514Z,77.50
2018-09-09T18:32:50.087Z,77.50
2018-09-09T18:35:18.847Z,78.00
2018-09-09T18:37:46.782Z,78.10
2018-09-09T18:40:15.455Z,78.90
2018-09-09T18:42:44.596Z,79.40
2018-09-09T18:45:12.529Z,79.30
2018-09-09T18:47:40.444Z,79.60
2018-09-09T18:50:09.065Z,79.40
2018-09-09T18:52:36.976Z,79.70
2018-09-09T18:55:04.997Z,79.60
2018-09-09T18:57:35.103Z,80.00
2018-09-09T19:00:03.489Z,79.40
2018-09-09T19:02:31.526Z,78.70
2018-09-09T19:05:01.841Z,78.30
2018-09-09T19:07:31.409Z,78.60
2018-09-09T19:09:59.349Z,78.50
2018-09-09T19:12:27.923Z,78.90
2018-09-09T19:14:55.880Z,79.40
2018-09-09T19:17:23.946Z,79.20
2018-09-09T19:19:51.920Z,80.20
2018-09-09T19:22:22.352Z,80.70
2018-09-09T19:24:50.612Z,81.30
2018-09-09T19:27:18.589Z,81.40
2018-09-09T19:29:47.834Z,81.90
2018-09-09T19:32:16.390Z,82.60
2018-09-09T19:34:44.313Z,82.30
2018-09-09T19:37:12.918Z,82.30
2018-09-09T19:39:41.493Z,83.20
2018-09-09T19:42:09.475Z,83.00
2018-09-09T19:44:37.614Z,83.10
2018-09-09T19:47:06.329Z,83.70
2018-09-09T19:49:34.450Z,83.80
2018-09-09T19:52:02.892Z,83.90
2018-09-09T19:54:31.833Z,84.30
2018-09-09T19:57:01.236Z,84.60
2018-09-09T19:59:30.191Z,84.70
2018-09-09T20:02:00.170Z,84.90
2018-09-09T20:04:28.121Z,84.80
2018-09-09T20:06:56.773Z,85.30
2018-09-09T20:09:26.580Z,85.40
2018-09-09T20:11:54.578Z,85.70
2018-09-09T20:14:22.715Z,86.10
2018-09-09T20:16:50.732Z,85.60
2018-09-09T20:19:18.740Z,85.30
2018-09-09T20:21:46.744Z,85.10
2018-09-09T20:24:14.777Z,85.20
2018-09-09T20:26:43.897Z,85.40
2018-09-09T20:29:11.842Z,85.00
2018-09-09T20:31:41.338Z,85.10
2018-09-09T20:34:09.401Z,84.90
2018-09-09T20:36:38.107Z,85.20
2018-09-09T20:39:08.262Z,84.80
2018-09-09T20:41:36.600Z,85.20
2018-09-09T20:44:06.122Z,85.60
2018-09-09T20:46:34.762Z,85.60
2018-09-09T20:49:03.522Z,85.80
2018-09-09T20:51:32.093Z,85.90
2018-09-09T20:54:01.392Z,85.80
2018-09-09T20:56:30.736Z,85.70
2018-09-09T20:59:00.932Z,85.90
2018-09-09T21:01:29.932Z,85.90
2018-09-09T21:03:57.928Z,86.10
2018-09-09T21:06:27.163Z,85.80
2018-09-09T21:08:58.545Z,85.60
2018-09-09T21:11:27.318Z,85.00
2018-09-09T21:13:58.310Z,85.00
2018-09-09T21:16:26.998Z,84.80
2018-09-09T21:18:59.176Z,84.60
2018-09-09T21:21:28.886Z,85.20
2018-09-09T21:23:59.165Z,85.60
2018-09-09T21:26:29.455Z,85.70
2018-09-09T21:28:59.673Z,86.00
2018-09-09T21:31:28.685Z,85.80
2018-09-09T21:33:59.050Z,85.90
2018-09-09T21:36:29.359Z,86.50
2018-09-09T21:38:57.772Z,85.90
2018-09-09T21:41:27.789Z,86.20
2018-09-09T21:43:56.690Z,85.90
2018-09-09T21:46:27.874Z,85.90
2018-09-09T21:48:57.594Z,85.90
2018-09-09T21:51:27.001Z,86.30
2018-09-09T21:53:56.733Z,87.00
2018-09-09T21:56:27.607Z,87.50
2018-09-09T21:58:59.124Z,87.90
2018-09-09T22:01:33.097Z,87.90
2018-09-09T22:04:03.292Z,88.60
2018-09-09T22:06:32.480Z,89.20
2018-09-09T22:09:02.041Z,89.10
2018-09-09T22:11:32.161Z,89.40
2018-09-09T22:14:01.038Z,89.00
2018-09-09T22:16:31.044Z,88.90
2018-09-09T22:18:59.552Z,88.80
2018-09-09T22:21:29.336Z,88.50
2018-09-09T22:23:59.378Z,88.30
2018-09-09T22:26:30.163Z,87.90
2018-09-09T22:29:00.514Z,88.00
2018-09-09T22:31:30.313Z,88.40
2018-09-09T22:34:01.499Z,87.80
2018-09-09T22:36:31.195Z,87.90
2018-09-09T22:39:01.689Z,87.90
2018-09-09T22:41:31.155Z,88.60
2018-09-09T22:44:01.206Z,88.10
2018-09-09T22:46:29.311Z,88.60
2018-09-09T22:48:59.835Z,88.20
2018-09-09T22:51:30.830Z,88.40
2018-09-09T22:54:01.814Z,88.70
2018-09-09T22:56:31.611Z,88.60
2018-09-09T22:59:02.898Z,89.00
2018-09-09T23:01:33.451Z,88.40
2018-09-09T23:04:01.692Z,89.20
2018-09-09T23:06:29.778Z,88.40
2018-09-09T23:09:01.659Z,88.70
2018-09-09T23:11:32.481Z,89.00
2018-09-09T23:14:03.143Z,89.00
2018-09-09T23:16:33.819Z,88.90
2018-09-09T23:19:01.870Z,88.90
2018-09-09T23:21:30.034Z,89.40
2018-09-09T23:23:58.792Z,89.50
2018-09-09T23:26:27.497Z,89.70
2018-09-09T23:28:56.073Z,89.30
2018-09-09T23:31:25.957Z,89.30
2018-09-09T23:33:55.091Z,89.00
2018-09-09T23:36:26.099Z,89.40
2018-09-09T23:38:54.425Z,89.90
2018-09-09T23:41:23.318Z,90.00
2018-09-09T23:43:52.597Z,90.00
2018-09-09T23:46:21.754Z,89.60
2018-09-09T23:48:50.870Z,89.30
2018-09-09T23:51:20.728Z,89.60
2018-09-09T23:53:49.432Z,89.60
2018-09-09T23:56:19.714Z,90.20
2018-09-09T23:58:48.242Z,89.60
